createdAt,value
2019-02-16T00:00:43.888Z,25.98
2019-02-16T00:01:43.845Z,25.98
2019-02-16T00:02:43.942Z,26.18
2019-02-16T00:03:43.799Z,25.97
2019-02-16T00:04:43.843Z,26.17
2019-02-16T00:05:43.779Z,25.98
2019-02-16T00:06:43.764Z,26.98
2019-02-16T00:07:43.769Z,26.98
2019-02-16T00:08:43.769Z,26.78
2019-02-16T00:09:43.750Z,27.17
2019-02-16T00:10:43.720Z,27.09
2019-02-16T00:11:43.714Z,27.09
2019-02-16T00:12:43.716Z,26.89
2019-02-16T00:13:43.686Z,27.09
2019-02-16T00:14:43.734Z,26.68
2019-02-16T00:15:43.672Z,26.98
2019-02-16T00:16:43.661Z,26.89
2019-02-16T00:17:43.681Z,26.98
2019-02-16T00:18:43.645Z,26.89
2019-02-16T00:19:43.624Z,26.98
2019-02-16T00:20:43.639Z,27.19
2019-02-16T00:21:43.605Z,26.68
2019-02-16T00:22:43.626Z,27.09
2019-02-16T00:23:43.588Z,26.89
2019-02-16T00:24:43.572Z,27.09
2019-02-16T00:25:43.577Z,26.89
2019-02-16T00:26:43.693Z,26.58
2019-02-16T00:27:43.632Z,26.78
2019-02-16T00:28:43.537Z,26.89
2019-02-16T00:29:43.517Z,26.98
2019-02-16T00:30:43.503Z,26.90
2019-02-16T00:31:43.489Z,26.78
2019-02-16T00:32:43.522Z,27.19
2019-02-16T00:33:43.511Z,26.78
2019-02-16T00:34:43.484Z,26.28
2019-02-16T00:35:43.617Z,26.39
2019-02-16T00:36:43.437Z,26.39
2019-02-16T00:37:43.430Z,26.48
2019-02-16T00:38:43.509Z,26.48
2019-02-16T00:39:43.418Z,25.98
2019-02-16T00:40:43.396Z,26.58
2019-02-16T00:41:43.399Z,26.78
2019-02-16T00:42:43.386Z,26.78
2019-02-16T00:43:43.403Z,26.68
2019-02-16T00:44:43.375Z,26.78
2019-02-16T00:45:43.371Z,26.78
2019-02-16T00:46:43.325Z,26.68
2019-02-16T00:47:43.314Z,26.78
2019-02-16T00:48:43.336Z,26.68
2019-02-16T00:49:43.333Z,26.39
2019-02-16T00:50:43.279Z,26.48
2019-02-16T00:51:43.279Z,26.48
2019-02-16T00:52:43.260Z,26.39
2019-02-16T00:53:43.282Z,26.58
2019-02-16T00:54:43.241Z,25.98
2019-02-16T00:55:43.229Z,25.88
2019-02-16T00:56:43.306Z,26.18
2019-02-16T00:57:43.257Z,26.89
2019-02-16T00:58:43.210Z,27.09
2019-02-16T00:59:43.185Z,26.78
2019-02-16T01:00:43.187Z,26.98
2019-02-16T01:01:43.211Z,26.98
2019-02-16T01:02:43.150Z,27.09
2019-02-16T01:03:43.160Z,27.10
2019-02-16T01:04:43.132Z,27.09
2019-02-16T01:05:43.228Z,26.89
2019-02-16T01:06:43.101Z,27.10
2019-02-16T01:07:43.196Z,27.00
2019-02-16T01:08:43.091Z,26.79
2019-02-16T01:09:43.073Z,26.68
2019-02-16T01:10:43.066Z,27.00
2019-02-16T01:11:43.046Z,26.48
2019-02-16T01:12:43.037Z,26.39
2019-02-16T01:13:43.072Z,26.78
2019-02-16T01:14:43.023Z,26.78
2019-02-16T01:15:43.012Z,26.98
2019-02-16T01:16:42.992Z,27.09
2019-02-16T01:17:42.982Z,27.09
2019-02-16T01:18:42.978Z,27.09
2019-02-16T01:19:42.979Z,26.90
2019-02-16T01:20:42.966Z,27.10
2019-02-16T01:21:42.953Z,27.10
2019-02-16T01:22:42.934Z,26.89
2019-02-16T01:23:42.966Z,27.00
2019-02-16T01:24:42.910Z,26.90
2019-02-16T01:25:42.889Z,26.89
2019-02-16T01:26:42.938Z,26.60
2019-02-16T01:27:42.954Z,25.79
2019-02-16T01:28:42.891Z,26.39
2019-02-16T01:29:42.871Z,26.50
2019-02-16T01:30:42.856Z,26.40
2019-02-16T01:31:42.824Z,26.90
2019-02-16T01:32:42.817Z,27.00
2019-02-16T01:33:42.836Z,27.10
2019-02-16T01:34:42.801Z,27.10
2019-02-16T01:35:42.779Z,27.10
2019-02-16T01:36:42.783Z,27.10
2019-02-16T01:37:42.779Z,27.10
2019-02-16T01:38:42.753Z,26.90
2019-02-16T01:39:42.753Z,26.90
2019-02-16T01:40:42.725Z,26.90
2019-02-16T01:41:42.719Z,26.70
2019-02-16T01:42:42.703Z,27.20
2019-02-16T01:43:42.749Z,27.10
2019-02-16T01:44:42.699Z,27.00
2019-02-16T01:45:42.676Z,26.58
2019-02-16T01:46:42.663Z,26.29
2019-02-16T01:47:42.661Z,26.70
2019-02-16T01:48:42.649Z,26.90
2019-02-16T01:49:42.642Z,26.90
2019-02-16T01:50:42.623Z,27.10
2019-02-16T01:51:42.604Z,26.90
2019-02-16T01:52:42.604Z,26.90
2019-02-16T01:53:42.586Z,27.10
2019-02-16T01:54:42.591Z,26.90
2019-02-16T01:55:42.584Z,26.90
2019-02-16T01:56:42.551Z,26.90
2019-02-16T01:57:42.541Z,26.60
2019-02-16T01:58:42.526Z,27.00
2019-02-16T01:59:42.529Z,27.00
2019-02-16T02:00:42.519Z,27.20
2019-02-16T02:01:42.491Z,27.00
2019-02-16T02:02:42.527Z,26.90
2019-02-16T02:03:42.555Z,27.10
2019-02-16T02:04:42.484Z,27.10
2019-02-16T02:05:42.453Z,27.10
2019-02-16T02:06:42.438Z,26.50
2019-02-16T02:07:42.433Z,26.90
2019-02-16T02:08:42.417Z,26.90
2019-02-16T02:09:42.435Z,26.79
2019-02-16T02:10:42.431Z,26.70
2019-02-16T02:11:42.456Z,26.70
2019-02-16T02:12:42.384Z,26.90
2019-02-16T02:13:42.374Z,26.60
2019-02-16T02:14:42.362Z,26.60
2019-02-16T02:15:42.338Z,26.90
2019-02-16T02:16:42.355Z,26.79
2019-02-16T02:17:42.315Z,26.90
2019-02-16T02:18:42.322Z,27.10
2019-02-16T02:19:42.309Z,26.79
2019-02-16T02:20:42.290Z,26.60
2019-02-16T02:21:42.272Z,26.70
2019-02-16T02:22:42.264Z,26.79
2019-02-16T02:23:42.280Z,26.79
2019-02-16T02:24:42.259Z,26.79
2019-02-16T02:25:42.228Z,26.60
2019-02-16T02:26:42.357Z,26.40
2019-02-16T02:27:42.211Z,26.70
2019-02-16T02:28:42.192Z,26.70
2019-02-16T02:29:42.215Z,26.90
2019-02-16T02:30:42.177Z,27.00
2019-02-16T02:31:42.196Z,26.79
2019-02-16T02:32:42.149Z,26.70
2019-02-16T02:33:42.150Z,26.79
2019-02-16T02:34:42.138Z,27.10
2019-02-16T02:35:42.117Z,26.90
2019-02-16T02:36:42.106Z,26.90
2019-02-16T02:37:42.108Z,26.90
2019-02-16T02:38:42.088Z,26.90
2019-02-16T02:39:42.097Z,26.90
2019-02-16T02:40:42.085Z,27.00
2019-02-16T02:41:42.056Z,27.00
2019-02-16T02:42:42.066Z,26.40
2019-02-16T02:43:42.028Z,26.60
2019-02-16T02:44:42.063Z,26.70
2019-02-16T02:45:42.013Z,26.90
2019-02-16T02:46:42.003Z,26.90
2019-02-16T02:47:41.983Z,26.51
2019-02-16T02:48:41.996Z,26.61
2019-02-16T02:49:41.973Z,26.91
2019-02-16T02:50:42.194Z,26.81
2019-02-16T02:51:51.672Z,27.20
2019-02-16T02:52:42.938Z,26.61
2019-02-16T02:53:41.920Z,26.40
2019-02-16T02:54:41.910Z,26.29
2019-02-16T02:55:41.935Z,26.20
2019-02-16T02:56:41.962Z,26.29
2019-02-16T02:57:41.880Z,26.70
2019-02-16T02:58:41.863Z,26.79
2019-02-16T02:59:41.856Z,27.00
2019-02-16T03:00:41.848Z,26.79
2019-02-16T03:01:41.868Z,27.01
2019-02-16T03:02:41.818Z,27.00
2019-02-16T03:03:41.817Z,26.60
2019-02-16T03:04:41.795Z,26.70
2019-02-16T03:05:41.796Z,26.81
2019-02-16T03:06:41.798Z,26.70
2019-02-16T03:07:41.774Z,26.41
2019-02-16T03:08:41.761Z,26.61
2019-02-16T03:09:41.791Z,27.30
2019-02-16T03:10:41.737Z,26.91
2019-02-16T03:11:41.736Z,26.90
2019-02-16T03:12:41.713Z,27.00
2019-02-16T03:13:41.745Z,26.60
2019-02-16T03:14:41.707Z,27.00
2019-02-16T03:15:41.725Z,26.90
2019-02-16T03:16:41.669Z,26.90
2019-02-16T03:17:41.653Z,26.81
2019-02-16T03:18:41.643Z,27.01
2019-02-16T03:19:41.632Z,26.91
2019-02-16T03:20:41.630Z,26.61
2019-02-16T03:21:41.613Z,26.61
2019-02-16T03:22:41.600Z,27.01
2019-02-16T03:23:41.585Z,26.71
2019-02-16T03:24:41.575Z,26.71
2019-02-16T03:25:41.574Z,26.40
2019-02-16T03:26:41.601Z,26.91
2019-02-16T03:27:41.560Z,26.91
2019-02-16T03:28:41.528Z,26.90
2019-02-16T03:29:41.523Z,26.40
2019-02-16T03:30:41.554Z,26.91
2019-02-16T03:31:41.506Z,27.01
2019-02-16T03:32:41.532Z,26.61
2019-02-16T03:33:41.523Z,26.61
2019-02-16T03:34:41.465Z,26.61
2019-02-16T03:35:41.472Z,26.61
2019-02-16T03:36:41.462Z,26.71
2019-02-16T03:37:41.446Z,26.61
2019-02-16T03:38:41.439Z,26.81
2019-02-16T03:39:41.433Z,26.41
2019-02-16T03:40:41.441Z,27.11
2019-02-16T03:41:41.385Z,26.61
2019-02-16T03:42:41.386Z,27.11
2019-02-16T03:43:41.378Z,26.71
2019-02-16T03:44:41.357Z,26.71
2019-02-16T03:45:41.348Z,26.71
2019-02-16T03:46:41.361Z,26.81
2019-02-16T03:47:41.322Z,26.81
2019-02-16T03:48:41.323Z,26.61
2019-02-16T03:49:41.296Z,26.71
2019-02-16T03:50:41.290Z,26.91
2019-02-16T03:51:41.296Z,26.41
2019-02-16T03:52:41.283Z,27.11
2019-02-16T03:53:41.267Z,27.41
2019-02-16T03:54:41.256Z,26.51
2019-02-16T03:55:41.235Z,27.41
2019-02-16T03:56:41.346Z,27.01
2019-02-16T03:57:41.216Z,26.71
2019-02-16T03:58:41.198Z,26.91
2019-02-16T03:59:41.192Z,27.01
2019-02-16T04:00:41.192Z,27.01
2019-02-16T04:01:41.199Z,26.91
2019-02-16T04:02:41.190Z,26.71
2019-02-16T04:03:41.141Z,26.71
2019-02-16T04:04:41.138Z,26.51
2019-02-16T04:05:41.120Z,26.61
2019-02-16T04:06:41.122Z,27.01
2019-02-16T04:07:41.099Z,26.51
2019-02-16T04:08:41.105Z,26.61
2019-02-16T04:09:41.076Z,26.71
2019-02-16T04:10:41.064Z,26.91
2019-02-16T04:11:41.094Z,26.91
2019-02-16T04:12:41.043Z,27.41
2019-02-16T04:13:41.048Z,26.51
2019-02-16T04:14:41.026Z,26.81
2019-02-16T04:15:41.027Z,26.91
2019-02-16T04:16:41.023Z,26.61
2019-02-16T04:17:40.986Z,26.61
2019-02-16T04:18:40.985Z,26.71
2019-02-16T04:19:40.998Z,26.91
2019-02-16T04:20:40.973Z,26.41
2019-02-16T04:21:40.959Z,26.51
2019-02-16T04:22:40.973Z,27.21
2019-02-16T04:23:40.927Z,26.51
2019-02-16T04:24:40.919Z,27.41
2019-02-16T04:25:40.908Z,27.41
2019-02-16T04:26:40.990Z,27.51
2019-02-16T04:27:40.875Z,27.51
2019-02-16T04:28:40.896Z,27.41
2019-02-16T04:29:40.879Z,27.42
2019-02-16T04:30:40.949Z,27.01
2019-02-16T04:31:40.849Z,27.41
2019-02-16T04:32:40.864Z,26.41
2019-02-16T04:33:40.822Z,26.91
2019-02-16T04:34:40.822Z,26.91
2019-02-16T04:35:40.856Z,26.61
2019-02-16T04:36:40.795Z,26.61
2019-02-16T04:37:40.823Z,27.01
2019-02-16T04:38:40.775Z,26.71
2019-02-16T04:39:40.792Z,26.91
2019-02-16T04:40:40.745Z,26.91
2019-02-16T04:41:40.757Z,26.81
2019-02-16T04:42:40.743Z,26.41
2019-02-16T04:43:40.705Z,26.91
2019-02-16T04:44:40.719Z,26.41
2019-02-16T04:45:40.679Z,26.41
2019-02-16T04:46:40.670Z,26.62
2019-02-16T04:47:40.688Z,27.51
2019-02-16T04:48:40.647Z,26.61
2019-02-16T04:49:40.633Z,26.41
2019-02-16T04:50:40.621Z,26.41
2019-02-16T04:51:40.615Z,26.42
2019-02-16T04:52:40.614Z,26.92
2019-02-16T04:53:40.670Z,26.61
2019-02-16T04:54:40.589Z,27.01
2019-02-16T04:55:40.578Z,27.21
2019-02-16T04:56:40.625Z,26.61
2019-02-16T04:57:40.559Z,26.91
2019-02-16T04:58:40.539Z,26.51
2019-02-16T04:59:40.538Z,26.51
2019-02-16T05:00:40.519Z,26.31
2019-02-16T05:01:40.520Z,27.21
2019-02-16T05:02:40.508Z,27.22
2019-02-16T05:03:40.501Z,27.02
2019-02-16T05:04:40.470Z,27.53
2019-02-16T05:05:40.477Z,27.11
2019-02-16T05:06:40.461Z,27.41
2019-02-16T05:07:40.450Z,27.42
2019-02-16T05:08:40.425Z,27.41
2019-02-16T05:09:40.441Z,27.41
2019-02-16T05:10:40.461Z,27.41
2019-02-16T05:11:40.417Z,27.22
2019-02-16T05:12:40.402Z,26.62
2019-02-16T05:13:40.389Z,26.41
2019-02-16T05:14:40.371Z,26.61
2019-02-16T05:15:40.365Z,27.51
2019-02-16T05:16:40.339Z,26.41
2019-02-16T05:17:40.334Z,27.31
2019-02-16T05:18:40.329Z,27.42
2019-02-16T05:19:40.332Z,27.42
2019-02-16T05:20:40.297Z,26.91
2019-02-16T05:21:40.289Z,26.91
2019-02-16T05:22:44.560Z,26.92
2019-02-16T05:23:40.274Z,27.53
2019-02-16T05:24:40.332Z,27.31
2019-02-16T05:25:40.251Z,26.41
2019-02-16T05:26:40.268Z,26.61
2019-02-16T05:27:40.226Z,26.41
2019-02-16T05:28:40.211Z,26.92
2019-02-16T05:29:40.192Z,26.91
2019-02-16T05:30:40.196Z,26.42
2019-02-16T05:31:40.208Z,26.52
2019-02-16T05:32:40.171Z,27.11
2019-02-16T05:33:40.150Z,26.52
2019-02-16T05:34:40.138Z,27.53
2019-02-16T05:35:40.127Z,27.12
2019-02-16T05:36:40.167Z,27.42
2019-02-16T05:37:40.113Z,27.01
2019-02-16T05:38:40.099Z,27.42
2019-02-16T05:39:40.096Z,27.12
2019-02-16T05:40:40.077Z,27.02
2019-02-16T05:41:40.063Z,27.42
2019-02-16T05:42:40.127Z,27.22
2019-02-16T05:43:40.046Z,27.51
2019-02-16T05:44:40.058Z,27.42
2019-02-16T05:45:40.017Z,26.51
2019-02-16T05:46:40.004Z,27.12
2019-02-16T05:47:39.998Z,27.61
2019-02-16T05:48:39.990Z,26.91
2019-02-16T05:49:39.980Z,26.71
2019-02-16T05:50:39.979Z,26.81
2019-02-16T05:51:39.958Z,27.53
2019-02-16T05:52:39.937Z,26.72
2019-02-16T05:53:39.950Z,27.12
2019-02-16T05:54:39.914Z,27.53
2019-02-16T05:55:39.906Z,27.02
2019-02-16T05:56:39.964Z,27.42
2019-02-16T05:57:39.901Z,27.12
2019-02-16T05:58:39.881Z,27.12
2019-02-16T05:59:39.862Z,27.42
2019-02-16T06:00:39.847Z,27.22
2019-02-16T06:01:39.839Z,27.12
2019-02-16T06:02:39.870Z,27.02
2019-02-16T06:03:39.834Z,27.41
2019-02-16T06:04:39.808Z,26.92
2019-02-16T06:05:40.937Z,27.51
2019-02-16T06:06:39.806Z,26.91
2019-02-16T06:07:39.773Z,26.92
2019-02-16T06:08:39.791Z,26.91
2019-02-16T06:09:39.750Z,27.41
2019-02-16T06:10:39.744Z,27.22
2019-02-16T06:11:39.727Z,27.12
2019-02-16T06:12:39.716Z,27.42
2019-02-16T06:13:39.724Z,27.42
2019-02-16T06:14:39.714Z,26.62
2019-02-16T06:15:39.711Z,26.62
2019-02-16T06:16:39.695Z,26.92
2019-02-16T06:17:39.681Z,26.62
2019-02-16T06:18:39.736Z,26.62
2019-02-16T06:19:39.639Z,27.01
2019-02-16T06:20:39.630Z,27.51
2019-02-16T06:21:39.620Z,26.41
2019-02-16T06:22:39.613Z,26.51
2019-02-16T06:23:39.632Z,26.92
2019-02-16T06:24:39.635Z,26.91
2019-02-16T06:25:39.593Z,27.21
2019-02-16T06:26:39.700Z,26.92
2019-02-16T06:27:39.556Z,27.22
2019-02-16T06:28:39.574Z,27.42
2019-02-16T06:29:39.551Z,27.12
2019-02-16T06:30:39.520Z,27.53
2019-02-16T06:31:39.533Z,27.12
2019-02-16T06:32:39.505Z,27.53
2019-02-16T06:33:39.526Z,27.22
2019-02-16T06:34:39.509Z,26.52
2019-02-16T06:35:39.476Z,27.22
2019-02-16T06:36:39.556Z,26.61
2019-02-16T06:37:39.446Z,27.12
2019-02-16T06:38:39.438Z,26.81
2019-02-16T06:39:39.481Z,26.81
2019-02-16T06:40:41.077Z,27.01
2019-02-16T06:41:39.417Z,26.91
2019-02-16T06:42:39.390Z,26.81
2019-02-16T06:43:39.383Z,26.52
2019-02-16T06:44:39.375Z,26.62
2019-02-16T06:45:39.353Z,26.52
2019-02-16T06:46:39.339Z,27.33
2019-02-16T06:47:39.354Z,27.02
2019-02-16T06:48:39.325Z,27.42
2019-02-16T06:49:39.309Z,27.02
2019-02-16T06:50:39.307Z,27.12
2019-02-16T06:51:39.302Z,27.42
2019-02-16T06:52:39.272Z,27.02
2019-02-16T06:53:39.277Z,27.42
2019-02-16T06:54:39.250Z,27.42
2019-02-16T06:55:39.245Z,27.01
2019-02-16T06:56:39.294Z,26.52
2019-02-16T06:57:39.248Z,27.53
2019-02-16T06:58:39.272Z,26.51
2019-02-16T06:59:39.198Z,27.31
2019-02-16T07:00:39.181Z,27.33
2019-02-16T07:01:39.222Z,26.51
2019-02-16T07:02:39.162Z,27.02
2019-02-16T07:03:39.188Z,27.41
2019-02-16T07:04:39.144Z,26.62
2019-02-16T07:05:39.129Z,26.61
2019-02-16T07:06:39.138Z,26.51
2019-02-16T07:07:39.105Z,27.01
2019-02-16T07:08:39.115Z,26.61
2019-02-16T07:09:39.095Z,26.61
2019-02-16T07:10:39.091Z,26.61
2019-02-16T07:11:39.066Z,26.92
2019-02-16T07:12:39.052Z,26.91
2019-02-16T07:13:39.065Z,26.51
2019-02-16T07:14:39.032Z,26.52
2019-02-16T07:15:39.023Z,26.61
2019-02-16T07:16:39.036Z,26.41
2019-02-16T07:17:39.001Z,27.42
2019-02-16T07:18:38.998Z,27.53
2019-02-16T07:19:39.022Z,26.92
2019-02-16T07:20:38.963Z,26.92
2019-02-16T07:21:38.954Z,26.92
2019-02-16T07:22:38.943Z,26.92
2019-02-16T07:23:38.933Z,27.22
2019-02-16T07:24:38.931Z,27.42
2019-02-16T07:25:38.911Z,27.02
2019-02-16T07:26:38.937Z,26.81
2019-02-16T07:27:38.900Z,27.01
2019-02-16T07:28:38.919Z,27.01
2019-02-16T07:29:38.874Z,26.92
2019-02-16T07:30:38.856Z,26.92
2019-02-16T07:31:38.848Z,27.02
2019-02-16T07:32:38.847Z,26.62
2019-02-16T07:33:38.826Z,27.02
2019-02-16T07:34:38.846Z,26.72
2019-02-16T07:35:38.800Z,27.33
2019-02-16T07:36:38.787Z,27.41
2019-02-16T07:37:38.812Z,27.42
2019-02-16T07:38:38.785Z,27.53
2019-02-16T07:39:38.751Z,26.52
2019-02-16T07:40:38.761Z,26.52
2019-02-16T07:41:38.765Z,26.52
2019-02-16T07:42:38.735Z,26.62
2019-02-16T07:43:38.709Z,26.52
2019-02-16T07:44:38.710Z,26.82
2019-02-16T07:45:38.689Z,26.61
2019-02-16T07:46:38.677Z,26.62
2019-02-16T07:47:38.674Z,26.51
2019-02-16T07:48:38.651Z,26.62
2019-02-16T07:49:38.662Z,26.91
2019-02-16T07:50:38.636Z,26.91
2019-02-16T07:51:38.658Z,26.51
2019-02-16T07:52:38.606Z,26.51
2019-02-16T07:53:38.599Z,26.52
2019-02-16T07:54:38.601Z,26.71
2019-02-16T07:55:38.581Z,26.62
2019-02-16T07:56:43.591Z,27.12
2019-02-16T07:57:38.582Z,26.81
2019-02-16T07:58:38.547Z,26.61
2019-02-16T07:59:38.552Z,26.52
2019-02-16T08:00:38.520Z,26.61
2019-02-16T08:01:38.510Z,27.21
2019-02-16T08:02:38.503Z,26.81
2019-02-16T08:03:38.508Z,26.51
2019-02-16T08:04:38.513Z,26.51
2019-02-16T08:05:38.475Z,27.41
2019-02-16T08:06:38.454Z,27.21
2019-02-16T08:07:38.439Z,27.11
2019-02-16T08:08:38.432Z,26.91
2019-02-16T08:09:38.441Z,27.01
2019-02-16T08:10:38.434Z,26.81
2019-02-16T08:11:38.403Z,27.51
2019-02-16T08:12:38.392Z,27.12
2019-02-16T08:13:38.378Z,27.12
2019-02-16T08:14:38.370Z,27.41
2019-02-16T08:15:38.474Z,27.42
2019-02-16T08:16:38.342Z,27.33
2019-02-16T08:17:38.331Z,27.51
2019-02-16T08:18:38.331Z,27.41
2019-02-16T08:19:38.367Z,26.51
2019-02-16T08:20:38.330Z,26.81
2019-02-16T08:21:38.290Z,26.51
2019-02-16T08:22:38.319Z,26.41
2019-02-16T08:23:40.337Z,27.41
2019-02-16T08:24:38.792Z,26.51
2019-02-16T08:25:38.284Z,27.21
2019-02-16T08:26:38.319Z,27.41
2019-02-16T08:27:38.221Z,26.91
2019-02-16T08:28:38.212Z,27.41
2019-02-16T08:29:38.334Z,27.11
2019-02-16T08:30:38.196Z,27.21
2019-02-16T08:31:38.175Z,27.11
2019-02-16T08:32:38.177Z,27.41
2019-02-16T08:33:38.159Z,27.11
2019-02-16T08:34:38.145Z,27.51
2019-02-16T08:35:38.143Z,27.41
2019-02-16T08:36:38.131Z,27.41
2019-02-16T08:37:38.132Z,27.51
2019-02-16T08:38:38.157Z,27.51
2019-02-16T08:39:38.093Z,27.81
2019-02-16T08:40:38.629Z,27.61
2019-02-16T08:41:38.090Z,27.61
2019-02-16T08:42:38.057Z,27.61
2019-02-16T08:43:38.534Z,29.22
2019-02-16T08:44:38.051Z,29.41
2019-02-16T08:45:38.097Z,30.93
2019-02-16T08:46:38.028Z,32.02
2019-02-16T08:47:38.021Z,33.72
2019-02-16T08:48:37.991Z,34.54
2019-02-16T08:49:37.993Z,35.53
2019-02-16T08:50:38.005Z,35.13
2019-02-16T08:51:37.961Z,35.14
2019-02-16T08:52:37.943Z,35.43
2019-02-16T08:53:37.945Z,35.03
2019-02-16T08:54:37.924Z,35.03
2019-02-16T08:55:37.929Z,34.73
2019-02-16T08:56:37.980Z,34.63
2019-02-16T08:57:37.886Z,34.12
2019-02-16T08:58:37.890Z,34.42
2019-02-16T08:59:37.870Z,34.63
2019-02-16T09:00:37.877Z,33.52
2019-02-16T09:01:37.845Z,33.52
2019-02-16T09:02:37.873Z,33.92
2019-02-16T09:03:37.896Z,34.63
2019-02-16T09:04:37.810Z,33.02
2019-02-16T09:05:37.835Z,33.22
2019-02-16T09:06:37.814Z,33.83
2019-02-16T09:07:37.792Z,33.23
2019-02-16T09:08:37.772Z,33.14
2019-02-16T09:09:37.754Z,32.52
2019-02-16T09:10:37.764Z,32.92
2019-02-16T09:11:37.742Z,32.42
2019-02-16T09:12:37.736Z,32.12
2019-02-16T09:13:37.734Z,32.32
2019-02-16T09:14:37.759Z,32.42
2019-02-16T09:15:37.706Z,32.32
2019-02-16T09:16:38.470Z,32.62
2019-02-16T09:17:37.675Z,32.02
2019-02-16T09:18:37.702Z,31.82
2019-02-16T09:19:37.642Z,31.71
2019-02-16T09:20:37.633Z,32.02
2019-02-16T09:21:37.667Z,32.02
2019-02-16T09:22:37.626Z,32.72
2019-02-16T09:23:37.602Z,32.42
2019-02-16T09:24:37.596Z,32.42
2019-02-16T09:25:37.589Z,32.52
2019-02-16T09:26:37.716Z,32.02
2019-02-16T09:27:37.561Z,31.71
2019-02-16T09:28:37.572Z,32.12
2019-02-16T09:29:37.537Z,31.01
2019-02-16T09:30:37.522Z,31.21
2019-02-16T09:31:37.523Z,31.01
2019-02-16T09:32:37.505Z,30.91
2019-02-16T09:33:37.498Z,31.31
2019-02-16T09:34:37.486Z,31.31
2019-02-16T09:35:37.495Z,30.91
2019-02-16T09:36:37.465Z,31.00
2019-02-16T09:37:37.444Z,31.21
2019-02-16T09:38:37.456Z,31.21
2019-02-16T09:39:37.424Z,31.21
2019-02-16T09:40:37.410Z,31.41
2019-02-16T09:41:37.421Z,31.31
2019-02-16T09:42:37.394Z,32.32
2019-02-16T09:43:37.409Z,30.71
2019-02-16T09:44:37.366Z,30.71
2019-02-16T09:45:37.385Z,30.71
2019-02-16T09:46:37.388Z,31.01
2019-02-16T09:47:37.334Z,30.21
2019-02-16T09:48:37.339Z,29.50
2019-02-16T09:49:37.324Z,29.71
2019-02-16T09:50:37.323Z,29.71
2019-02-16T09:51:37.335Z,29.60
2019-02-16T09:52:37.279Z,29.50
2019-02-16T09:53:37.282Z,30.51
2019-02-16T09:54:37.255Z,30.81
2019-02-16T09:55:37.247Z,30.61
2019-02-16T09:56:37.349Z,30.51
2019-02-16T09:57:37.257Z,30.71
2019-02-16T09:58:37.247Z,31.12
2019-02-16T09:59:37.200Z,30.71
2019-02-16T10:00:37.195Z,30.41
2019-02-16T10:01:37.201Z,29.91
2019-02-16T10:02:37.172Z,29.61
2019-02-16T10:03:37.175Z,29.49
2019-02-16T10:04:37.148Z,29.21
2019-02-16T10:05:37.146Z,29.19
2019-02-16T10:06:37.159Z,28.99
2019-02-16T10:07:37.118Z,29.19
2019-02-16T10:08:37.102Z,29.39
2019-02-16T10:09:37.124Z,29.29
2019-02-16T10:10:37.098Z,29.19
2019-02-16T10:11:37.103Z,29.49
2019-02-16T10:12:37.067Z,29.79
2019-02-16T10:13:37.148Z,29.99
2019-02-16T10:14:37.040Z,29.61
2019-02-16T10:15:37.073Z,29.60
2019-02-16T10:16:37.037Z,29.60
2019-02-16T10:17:37.016Z,29.69
2019-02-16T10:18:37.086Z,29.81
2019-02-16T10:19:37.001Z,29.81
2019-02-16T10:20:36.989Z,29.60
2019-02-16T10:21:37.484Z,29.60
2019-02-16T10:22:36.990Z,29.91
2019-02-16T10:23:36.944Z,29.69
2019-02-16T10:24:36.933Z,29.79
2019-02-16T10:25:36.962Z,30.40
2019-02-16T10:26:36.990Z,29.49
2019-02-16T10:27:36.920Z,29.29
2019-02-16T10:28:36.882Z,29.19
2019-02-16T10:29:36.870Z,29.39
2019-02-16T10:30:36.879Z,29.09
2019-02-16T10:31:36.846Z,28.89
2019-02-16T10:32:36.871Z,28.79
2019-02-16T10:33:37.036Z,28.69
2019-02-16T10:34:36.833Z,28.59
2019-02-16T10:35:36.884Z,28.89
2019-02-16T10:36:36.794Z,28.79
2019-02-16T10:37:36.797Z,28.69
2019-02-16T10:38:36.770Z,27.89
2019-02-16T10:39:36.757Z,28.19
2019-02-16T10:40:36.783Z,28.09
2019-02-16T10:41:36.748Z,28.08
2019-02-16T10:42:36.735Z,28.58
2019-02-16T10:43:36.715Z,28.17
2019-02-16T10:44:36.702Z,28.89
2019-02-16T10:45:36.750Z,29.09
2019-02-16T10:46:36.681Z,28.79
2019-02-16T10:47:36.684Z,28.98
2019-02-16T10:48:36.746Z,28.79
2019-02-16T10:49:36.653Z,28.78
2019-02-16T10:50:36.639Z,28.88
2019-02-16T10:51:36.659Z,28.49
2019-02-16T10:52:36.673Z,28.19
2019-02-16T10:53:36.606Z,28.58
2019-02-16T10:54:36.626Z,28.28
2019-02-16T10:55:36.986Z,28.17
2019-02-16T10:56:41.535Z,27.97
2019-02-16T10:57:36.580Z,28.28
2019-02-16T10:58:36.559Z,28.38
2019-02-16T10:59:36.542Z,28.38
2019-02-16T11:00:36.537Z,28.48
2019-02-16T11:01:36.531Z,28.28
2019-02-16T11:02:36.547Z,28.17
2019-02-16T11:03:36.529Z,28.28
2019-02-16T11:04:38.555Z,28.17
2019-02-16T11:05:36.478Z,28.08
2019-02-16T11:06:36.474Z,29.18
2019-02-16T11:07:36.489Z,28.67
2019-02-16T11:08:36.444Z,29.18
2019-02-16T11:09:36.431Z,28.88
2019-02-16T11:10:36.434Z,27.78
2019-02-16T11:11:36.471Z,28.28
2019-02-16T11:12:36.430Z,28.17
2019-02-16T11:13:36.383Z,28.48
2019-02-16T11:14:36.388Z,27.87
2019-02-16T11:15:36.373Z,28.88
2019-02-16T11:16:36.367Z,28.67
2019-02-16T11:17:36.550Z,28.58
2019-02-16T11:18:36.326Z,28.48
2019-02-16T11:19:36.328Z,27.97
2019-02-16T11:20:36.313Z,28.67
2019-02-16T11:21:36.293Z,28.58
2019-02-16T11:22:36.314Z,28.78
2019-02-16T11:23:36.284Z,28.58
2019-02-16T11:24:36.409Z,28.78
2019-02-16T11:25:36.365Z,28.28
2019-02-16T11:26:41.076Z,28.58
2019-02-16T11:27:36.243Z,27.17
2019-02-16T11:28:36.226Z,27.56
2019-02-16T11:29:36.223Z,27.58
2019-02-16T11:30:36.249Z,27.66
2019-02-16T11:31:37.036Z,27.36
2019-02-16T11:32:36.182Z,27.66
2019-02-16T11:33:36.313Z,27.56
2019-02-16T11:34:36.266Z,27.76
2019-02-16T11:35:36.142Z,27.36
2019-02-16T11:36:36.128Z,27.56
2019-02-16T11:37:36.122Z,28.16
2019-02-16T11:38:36.114Z,27.86
2019-02-16T11:39:36.104Z,27.96
2019-02-16T11:40:36.254Z,28.46
2019-02-16T11:41:36.103Z,27.86
2019-02-16T11:42:36.078Z,28.67
2019-02-16T11:43:36.081Z,28.46
2019-02-16T11:44:36.043Z,27.76
2019-02-16T11:45:36.031Z,27.56
2019-02-16T11:46:36.038Z,27.56
2019-02-16T11:47:36.024Z,27.86
2019-02-16T11:48:36.058Z,27.96
2019-02-16T11:49:36.091Z,27.76
2019-02-16T11:50:35.999Z,27.96
2019-02-16T11:51:35.966Z,28.16
2019-02-16T11:52:35.961Z,27.96
2019-02-16T11:53:35.951Z,27.56
2019-02-16T11:54:45.250Z,27.56
2019-02-16T11:55:36.963Z,27.56
2019-02-16T11:56:37.378Z,27.56
2019-02-16T11:57:35.906Z,27.56
2019-02-16T11:58:35.905Z,28.06
2019-02-16T11:59:35.936Z,28.86
2019-02-16T12:00:35.886Z,28.56
2019-02-16T12:01:35.873Z,28.56
2019-02-16T12:02:39.650Z,28.66
2019-02-16T12:03:35.846Z,28.56
2019-02-16T12:04:35.822Z,27.96
2019-02-16T12:05:35.813Z,27.76
2019-02-16T12:06:35.811Z,27.96
2019-02-16T12:07:35.857Z,27.56
2019-02-16T12:08:36.053Z,27.76
2019-02-16T12:09:36.247Z,27.56
2019-02-16T12:10:35.756Z,27.36
2019-02-16T12:11:35.776Z,28.06
2019-02-16T12:12:35.734Z,27.96
2019-02-16T12:13:35.773Z,27.86
2019-02-16T12:14:35.710Z,27.76
2019-02-16T12:15:35.749Z,27.96
2019-02-16T12:16:35.689Z,27.96
2019-02-16T12:17:35.678Z,27.96
2019-02-16T12:18:35.669Z,27.56
2019-02-16T12:19:35.690Z,27.76
2019-02-16T12:20:35.643Z,27.76
2019-02-16T12:21:35.631Z,27.15
2019-02-16T12:22:35.648Z,27.86
2019-02-16T12:23:35.612Z,27.56
2019-02-16T12:24:35.609Z,27.36
2019-02-16T12:25:35.628Z,27.65
2019-02-16T12:26:35.647Z,27.86
2019-02-16T12:27:35.568Z,28.06
2019-02-16T12:28:35.584Z,28.06
2019-02-16T12:29:35.586Z,27.55
2019-02-16T12:30:35.531Z,27.55
2019-02-16T12:31:35.581Z,27.85
2019-02-16T12:32:35.552Z,27.96
2019-02-16T12:33:35.521Z,27.75
2019-02-16T12:34:35.501Z,27.56
2019-02-16T12:35:35.483Z,27.46
2019-02-16T12:36:35.475Z,27.46
2019-02-16T12:37:35.453Z,27.55
2019-02-16T12:38:35.470Z,27.85
2019-02-16T12:39:35.450Z,27.75
2019-02-16T12:40:35.450Z,27.35
2019-02-16T12:41:35.433Z,27.45
2019-02-16T12:42:35.529Z,27.15
2019-02-16T12:43:35.387Z,27.35
2019-02-16T12:44:35.410Z,27.45
2019-02-16T12:45:35.398Z,27.65
2019-02-16T12:46:35.403Z,27.85
2019-02-16T12:47:35.347Z,27.65
2019-02-16T12:48:35.337Z,27.65
2019-02-16T12:49:35.350Z,27.95
2019-02-16T12:50:35.318Z,27.85
2019-02-16T12:51:35.305Z,27.85
2019-02-16T12:52:35.288Z,27.85